sensor_id;sensor_type;location;lat;lon;timestamp;P1;durP1;ratioP1;P2;durP2;ratioP2
69779;SDS011;57052;55.602;38.096;2023-02-03T00:01:01;28.58;;;10.23;;
69779;SDS011;57052;55.602;38.096;2023-02-03T00:03:27;28.95;;;10.00;;
69779;SDS011;57052;55.602;38.096;2023-02-03T00:05:53;24.33;;;9.88;;
69779;SDS011;57052;55.602;38.096;2023-02-03T00:08:19;25.95;;;10.50;;
69779;SDS011;57052;55.602;38.096;2023-02-03T00:10:45;26.80;;;9.32;;
69779;SDS011;57052;55.602;38.096;2023-02-03T00:13:11;27.60;;;10.07;;
69779;SDS011;57052;55.602;38.096;2023-02-03T00:15:38;27.90;;;9.27;;
69779;SDS011;57052;55.602;38.096;2023-02-03T00:18:04;28.33;;;9.93;;
69779;SDS011;57052;55.602;38.096;2023-02-03T00:20:30;28.92;;;10.18;;
69779;SDS011;57052;55.602;38.096;2023-02-03T00:23:03;28.48;;;9.35;;
69779;SDS011;57052;55.602;38.096;2023-02-03T00:25:33;29.40;;;9.73;;
69779;SDS011;57052;55.602;38.096;2023-02-03T00:27:59;27.35;;;9.35;;
69779;SDS011;57052;55.602;38.096;2023-02-03T00:30:24;28.35;;;10.00;;
69779;SDS011;57052;55.602;38.096;2023-02-03T00:32:50;26.05;;;9.20;;
69779;SDS011;57052;55.602;38.096;2023-02-03T00:35:16;25.92;;;8.82;;
69779;SDS011;57052;55.602;38.096;2023-02-03T00:37:41;30.85;;;10.93;;
69779;SDS011;57052;55.602;38.096;2023-02-03T00:40:07;25.25;;;9.05;;
69779;SDS011;57052;55.602;38.096;2023-02-03T00:42:34;28.27;;;10.10;;
69779;SDS011;57052;55.602;38.096;2023-02-03T00:45:00;25.15;;;9.15;;
69779;SDS011;57052;55.602;38.096;2023-02-03T00:47:26;27.88;;;9.88;;
69779;SDS011;57052;55.602;38.096;2023-02-03T00:49:51;26.98;;;10.55;;
69779;SDS011;57052;55.602;38.096;2023-02-03T00:52:17;24.45;;;9.38;;
69779;SDS011;57052;55.602;38.096;2023-02-03T00:54:43;26.13;;;9.32;;
69779;SDS011;57052;55.602;38.096;2023-02-03T00:57:08;26.60;;;9.40;;
69779;SDS011;57052;55.602;38.096;2023-02-03T00:59:34;24.92;;;10.38;;
69779;SDS011;57052;55.602;38.096;2023-02-03T01:01:59;26.33;;;9.07;;
69779;SDS011;57052;55.602;38.096;2023-02-03T01:04:25;30.30;;;10.40;;
69779;SDS011;57052;55.602;38.096;2023-02-03T01:06:51;26.13;;;9.73;;
69779;SDS011;57052;55.602;38.096;2023-02-03T01:09:20;26.15;;;10.02;;
69779;SDS011;57052;55.602;38.096;2023-02-03T01:11:46;25.77;;;10.23;;
69779;SDS011;57052;55.602;38.096;2023-02-03T01:14:11;27.63;;;10.05;;
69779;SDS011;57052;55.602;38.096;2023-02-03T01:16:37;27.90;;;10.25;;
69779;SDS011;57052;55.602;38.096;2023-02-03T01:19:03;27.92;;;10.07;;
69779;SDS011;57052;55.602;38.096;2023-02-03T01:21:29;25.48;;;9.55;;
69779;SDS011;57052;55.602;38.096;2023-02-03T01:23:57;24.65;;;9.63;;
69779;SDS011;57052;55.602;38.096;2023-02-03T01:26:23;27.17;;;9.57;;
69779;SDS011;57052;55.602;38.096;2023-02-03T01:28:50;26.80;;;9.55;;
69779;SDS011;57052;55.602;38.096;2023-02-03T01:31:22;22.13;;;9.18;;
69779;SDS011;57052;55.602;38.096;2023-02-03T01:33:52;26.05;;;9.95;;
69779;SDS011;57052;55.602;38.096;2023-02-03T01:36:20;25.52;;;10.57;;
69779;SDS011;57052;55.602;38.096;2023-02-03T01:38:47;26.52;;;9.95;;
69779;SDS011;57052;55.602;38.096;2023-02-03T01:41:14;25.23;;;10.40;;
69779;SDS011;57052;55.602;38.096;2023-02-03T01:43:46;27.48;;;9.77;;
69779;SDS011;57052;55.602;38.096;2023-02-03T01:48:45;29.77;;;9.98;;
69779;SDS011;57052;55.602;38.096;2023-02-03T01:51:10;26.90;;;9.45;;
69779;SDS011;57052;55.602;38.096;2023-02-03T01:53:36;27.75;;;9.93;;
69779;SDS011;57052;55.602;38.096;2023-02-03T01:56:03;24.70;;;9.88;;
69779;SDS011;57052;55.602;38.096;2023-02-03T01:58:31;25.77;;;9.60;;
69779;SDS011;57052;55.602;38.096;2023-02-03T02:00:59;26.73;;;10.07;;
69779;SDS011;57052;55.602;38.096;2023-02-03T02:03:28;25.70;;;10.68;;
69779;SDS011;57052;55.602;38.096;2023-02-03T02:06:03;26.92;;;9.77;;
69779;SDS011;57052;55.602;38.096;2023-02-03T02:08:30;27.40;;;9.82;;
69779;SDS011;57052;55.602;38.096;2023-02-03T02:10:56;23.92;;;9.63;;
69779;SDS011;57052;55.602;38.096;2023-02-03T02:13:23;27.65;;;10.35;;
69779;SDS011;57052;55.602;38.096;2023-02-03T02:35:37;28.27;;;9.32;;
69779;SDS011;57052;55.602;38.096;2023-02-03T02:46:53;26.48;;;10.02;;
69779;SDS011;57052;55.602;38.096;2023-02-03T02:49:31;27.27;;;10.15;;
69779;SDS011;57052;55.602;38.096;2023-02-03T02:52:04;29.20;;;10.85;;
69779;SDS011;57052;55.602;38.096;2023-02-03T02:54:33;26.52;;;9.60;;
69779;SDS011;57052;55.602;38.096;2023-02-03T02:57:04;33.28;;;10.88;;
69779;SDS011;57052;55.602;38.096;2023-02-03T02:59:35;28.60;;;10.57;;
69779;SDS011;57052;55.602;38.096;2023-02-03T03:02:01;29.50;;;10.90;;
69779;SDS011;57052;55.602;38.096;2023-02-03T03:04:29;27.27;;;10.07;;
69779;SDS011;57052;55.602;38.096;2023-02-03T03:07:19;28.50;;;10.15;;
69779;SDS011;57052;55.602;38.096;2023-02-03T03:09:49;27.58;;;10.02;;
69779;SDS011;57052;55.602;38.096;2023-02-03T03:12:29;28.35;;;10.05;;
69779;SDS011;57052;55.602;38.096;2023-02-03T03:15:10;26.20;;;9.98;;
69779;SDS011;57052;55.602;38.096;2023-02-03T03:20:12;26.15;;;10.23;;
69779;SDS011;57052;55.602;38.096;2023-02-03T03:22:44;27.08;;;10.15;;
69779;SDS011;57052;55.602;38.096;2023-02-03T03:25:16;28.92;;;10.40;;
69779;SDS011;57052;55.602;38.096;2023-02-03T03:27:45;30.13;;;10.73;;
69779;SDS011;57052;55.602;38.096;2023-02-03T03:30:19;30.20;;;10.70;;
69779;SDS011;57052;55.602;38.096;2023-02-03T03:32:49;27.85;;;10.38;;
69779;SDS011;57052;55.602;38.096;2023-02-03T03:35:15;32.20;;;10.63;;
69779;SDS011;57052;55.602;38.096;2023-02-03T03:37:57;27.10;;;10.13;;
69779;SDS011;57052;55.602;38.096;2023-02-03T03:40:43;30.20;;;10.65;;
69779;SDS011;57052;55.602;38.096;2023-02-03T03:43:17;29.90;;;10.88;;
69779;SDS011;57052;55.602;38.096;2023-02-03T03:46:20;27.38;;;10.65;;
69779;SDS011;57052;55.602;38.096;2023-02-03T03:49:02;32.17;;;10.27;;
69779;SDS011;57052;55.602;38.096;2023-02-03T03:51:33;29.83;;;9.52;;
69779;SDS011;57052;55.602;38.096;2023-02-03T03:54:06;28.95;;;10.05;;
69779;SDS011;57052;55.602;38.096;2023-02-03T03:56:39;29.10;;;10.70;;
69779;SDS011;57052;55.602;38.096;2023-02-03T03:59:09;32.17;;;10.73;;
69779;SDS011;57052;55.602;38.096;2023-02-03T04:01:37;29.23;;;11.25;;
69779;SDS011;57052;55.602;38.096;2023-02-03T04:04:05;28.20;;;10.30;;
69779;SDS011;57052;55.602;38.096;2023-02-03T04:06:33;31.63;;;11.02;;
69779;SDS011;57052;55.602;38.096;2023-02-03T04:08:58;30.40;;;11.05;;
69779;SDS011;57052;55.602;38.096;2023-02-03T04:11:26;28.23;;;10.82;;
69779;SDS011;57052;55.602;38.096;2023-02-03T04:14:10;32.33;;;11.30;;
69779;SDS011;57052;55.602;38.096;2023-02-03T04:16:36;28.75;;;10.60;;
69779;SDS011;57052;55.602;38.096;2023-02-03T04:19:01;33.22;;;11.35;;
69779;SDS011;57052;55.602;38.096;2023-02-03T04:21:27;36.25;;;12.40;;
69779;SDS011;57052;55.602;38.096;2023-02-03T04:23:52;34.35;;;11.55;;
69779;SDS011;57052;55.602;38.096;2023-02-03T04:26:20;34.53;;;11.77;;
69779;SDS011;57052;55.602;38.096;2023-02-03T04:28:46;34.03;;;11.95;;
69779;SDS011;57052;55.602;38.096;2023-02-03T04:31:12;34.72;;;12.13;;
69779;SDS011;57052;55.602;38.096;2023-02-03T04:33:37;32.58;;;11.32;;
69779;SDS011;57052;55.602;38.096;2023-02-03T04:36:03;27.65;;;11.32;;
69779;SDS011;57052;55.602;38.096;2023-02-03T04:38:28;37.42;;;12.38;;
69779;SDS011;57052;55.602;38.096;2023-02-03T04:40:54;31.58;;;12.40;;
69779;SDS011;57052;55.602;38.096;2023-02-03T04:43:20;32.60;;;11.55;;
69779;SDS011;57052;55.602;38.096;2023-02-03T04:45:45;33.28;;;11.85;;
69779;SDS011;57052;55.602;38.096;2023-02-03T04:48:11;31.83;;;12.38;;
69779;SDS011;57052;55.602;38.096;2023-02-03T04:50:36;33.65;;;12.07;;
69779;SDS011;57052;55.602;38.096;2023-02-03T04:53:02;39.28;;;12.23;;
69779;SDS011;57052;55.602;38.096;2023-02-03T04:55:30;32.97;;;12.35;;
69779;SDS011;57052;55.602;38.096;2023-02-03T04:57:59;35.03;;;12.23;;
69779;SDS011;57052;55.602;38.096;2023-02-03T05:00:26;33.10;;;11.70;;
69779;SDS011;57052;55.602;38.096;2023-02-03T05:02:52;33.70;;;11.95;;
69779;SDS011;57052;55.602;38.096;2023-02-03T05:05:18;32.78;;;11.65;;
69779;SDS011;57052;55.602;38.096;2023-02-03T05:07:44;37.15;;;12.07;;
69779;SDS011;57052;55.602;38.096;2023-02-03T05:10:09;30.08;;;11.85;;
69779;SDS011;57052;55.602;38.096;2023-02-03T05:12:35;35.20;;;12.88;;
69779;SDS011;57052;55.602;38.096;2023-02-03T05:15:01;39.13;;;13.25;;
69779;SDS011;57052;55.602;38.096;2023-02-03T05:17:28;34.22;;;11.88;;
69779;SDS011;57052;55.602;38.096;2023-02-03T05:19:54;35.83;;;11.18;;
69779;SDS011;57052;55.602;38.096;2023-02-03T05:22:20;40.28;;;13.68;;
69779;SDS011;57052;55.602;38.096;2023-02-03T05:24:45;34.20;;;12.63;;
69779;SDS011;57052;55.602;38.096;2023-02-03T05:27:11;33.50;;;11.85;;
69779;SDS011;57052;55.602;38.096;2023-02-03T05:29:36;37.97;;;13.50;;
69779;SDS011;57052;55.602;38.096;2023-02-03T05:32:02;36.78;;;13.35;;
69779;SDS011;57052;55.602;38.096;2023-02-03T05:34:28;40.95;;;13.77;;
69779;SDS011;57052;55.602;38.096;2023-02-03T05:36:53;40.17;;;13.50;;
69779;SDS011;57052;55.602;38.096;2023-02-03T05:39:19;37.08;;;12.27;;
69779;SDS011;57052;55.602;38.096;2023-02-03T05:41:45;34.65;;;11.77;;
69779;SDS011;57052;55.602;38.096;2023-02-03T05:44:17;31.83;;;11.90;;
69779;SDS011;57052;55.602;38.096;2023-02-03T05:46:43;33.65;;;12.45;;
69779;SDS011;57052;55.602;38.096;2023-02-03T05:49:09;38.17;;;13.35;;
69779;SDS011;57052;55.602;38.096;2023-02-03T05:51:34;36.85;;;12.95;;
69779;SDS011;57052;55.602;38.096;2023-02-03T05:54:00;34.83;;;11.35;;
69779;SDS011;57052;55.602;38.096;2023-02-03T05:56:25;34.42;;;12.70;;
69779;SDS011;57052;55.602;38.096;2023-02-03T05:58:51;33.95;;;11.68;;
69779;SDS011;57052;55.602;38.096;2023-02-03T06:01:17;37.90;;;13.65;;
69779;SDS011;57052;55.602;38.096;2023-02-03T06:03:44;38.33;;;13.57;;
69779;SDS011;57052;55.602;38.096;2023-02-03T06:06:11;36.70;;;12.23;;
69779;SDS011;57052;55.602;38.096;2023-02-03T06:08:37;35.03;;;12.15;;
69779;SDS011;57052;55.602;38.096;2023-02-03T06:11:02;38.50;;;12.75;;
69779;SDS011;57052;55.602;38.096;2023-02-03T06:13:28;36.03;;;12.75;;
69779;SDS011;57052;55.602;38.096;2023-02-03T06:15:54;37.28;;;12.93;;
69779;SDS011;57052;55.602;38.096;2023-02-03T06:18:20;34.85;;;13.20;;
69779;SDS011;57052;55.602;38.096;2023-02-03T06:20:46;39.25;;;13.00;;
69779;SDS011;57052;55.602;38.096;2023-02-03T06:23:12;40.72;;;13.13;;
69779;SDS011;57052;55.602;38.096;2023-02-03T06:25:37;41.83;;;13.63;;
69779;SDS011;57052;55.602;38.096;2023-02-03T06:28:03;37.63;;;12.80;;
69779;SDS011;57052;55.602;38.096;2023-02-03T06:30:29;36.90;;;13.07;;
69779;SDS011;57052;55.602;38.096;2023-02-03T06:32:54;39.83;;;12.93;;
69779;SDS011;57052;55.602;38.096;2023-02-03T06:35:20;36.45;;;13.52;;
69779;SDS011;57052;55.602;38.096;2023-02-03T06:37:46;37.67;;;12.18;;
69779;SDS011;57052;55.602;38.096;2023-02-03T06:40:11;41.33;;;12.60;;
69779;SDS011;57052;55.602;38.096;2023-02-03T06:42:38;36.28;;;13.88;;
69779;SDS011;57052;55.602;38.096;2023-02-03T06:45:04;34.97;;;11.95;;
69779;SDS011;57052;55.602;38.096;2023-02-03T06:47:30;41.35;;;12.85;;
69779;SDS011;57052;55.602;38.096;2023-02-03T06:49:55;40.25;;;13.20;;
69779;SDS011;57052;55.602;38.096;2023-02-03T06:52:21;41.30;;;13.40;;
69779;SDS011;57052;55.602;38.096;2023-02-03T06:54:46;38.85;;;12.13;;
69779;SDS011;57052;55.602;38.096;2023-02-03T06:57:12;33.60;;;11.85;;
69779;SDS011;57052;55.602;38.096;2023-02-03T06:59:38;35.83;;;12.55;;
69779;SDS011;57052;55.602;38.096;2023-02-03T07:02:03;37.17;;;12.65;;
69779;SDS011;57052;55.602;38.096;2023-02-03T07:04:29;39.97;;;13.13;;
69779;SDS011;57052;55.602;38.096;2023-02-03T07:06:55;39.80;;;14.27;;
69779;SDS011;57052;55.602;38.096;2023-02-03T07:09:21;35.58;;;12.60;;
69779;SDS011;57052;55.602;38.096;2023-02-03T07:11:47;34.75;;;12.77;;
69779;SDS011;57052;55.602;38.096;2023-02-03T07:14:12;37.95;;;13.40;;
69779;SDS011;57052;55.602;38.096;2023-02-03T07:16:38;36.78;;;12.25;;
69779;SDS011;57052;55.602;38.096;2023-02-03T07:19:04;34.58;;;12.30;;
69779;SDS011;57052;55.602;38.096;2023-02-03T07:21:31;37.17;;;13.15;;
69779;SDS011;57052;55.602;38.096;2023-02-03T07:23:56;40.17;;;12.95;;
69779;SDS011;57052;55.602;38.096;2023-02-03T07:26:22;40.35;;;13.43;;
69779;SDS011;57052;55.602;38.096;2023-02-03T07:28:49;35.67;;;13.15;;
69779;SDS011;57052;55.602;38.096;2023-02-03T07:31:16;38.75;;;13.27;;
69779;SDS011;57052;55.602;38.096;2023-02-03T07:33:42;37.53;;;12.45;;
69779;SDS011;57052;55.602;38.096;2023-02-03T07:36:08;37.83;;;12.60;;
69779;SDS011;57052;55.602;38.096;2023-02-03T07:38:34;34.17;;;12.60;;
69779;SDS011;57052;55.602;38.096;2023-02-03T07:41:02;38.30;;;13.32;;
69779;SDS011;57052;55.602;38.096;2023-02-03T07:43:28;36.15;;;12.45;;
69779;SDS011;57052;55.602;38.096;2023-02-03T07:45:54;40.22;;;13.48;;
69779;SDS011;57052;55.602;38.096;2023-02-03T07:48:20;33.42;;;12.23;;
69779;SDS011;57052;55.602;38.096;2023-02-03T07:50:48;37.53;;;12.45;;
69779;SDS011;57052;55.602;38.096;2023-02-03T07:53:15;38.40;;;12.70;;
69779;SDS011;57052;55.602;38.096;2023-02-03T07:55:41;32.58;;;12.85;;
69779;SDS011;57052;55.602;38.096;2023-02-03T07:58:07;36.47;;;12.52;;
69779;SDS011;57052;55.602;38.096;2023-02-03T08:00:33;33.22;;;12.50;;
69779;SDS011;57052;55.602;38.096;2023-02-03T08:02:58;40.17;;;13.60;;
69779;SDS011;57052;55.602;38.096;2023-02-03T08:05:24;41.63;;;13.38;;
69779;SDS011;57052;55.602;38.096;2023-02-03T08:07:49;39.42;;;13.05;;
69779;SDS011;57052;55.602;38.096;2023-02-03T08:10:15;35.63;;;12.82;;
69779;SDS011;57052;55.602;38.096;2023-02-03T08:12:42;35.85;;;12.30;;
69779;SDS011;57052;55.602;38.096;2023-02-03T08:15:08;39.95;;;13.38;;
69779;SDS011;57052;55.602;38.096;2023-02-03T08:17:35;37.30;;;13.32;;
69779;SDS011;57052;55.602;38.096;2023-02-03T08:20:02;37.28;;;13.40;;
69779;SDS011;57052;55.602;38.096;2023-02-03T08:22:29;33.35;;;12.38;;
69779;SDS011;57052;55.602;38.096;2023-02-03T08:24:54;36.55;;;13.18;;
69779;SDS011;57052;55.602;38.096;2023-02-03T08:27:21;37.00;;;13.15;;
69779;SDS011;57052;55.602;38.096;2023-02-03T08:29:47;34.80;;;12.48;;
69779;SDS011;57052;55.602;38.096;2023-02-03T08:32:18;35.22;;;12.88;;
69779;SDS011;57052;55.602;38.096;2023-02-03T08:34:46;32.28;;;12.07;;
69779;SDS011;57052;55.602;38.096;2023-02-03T08:37:13;33.78;;;11.95;;
69779;SDS011;57052;55.602;38.096;2023-02-03T08:39:40;37.97;;;13.75;;
69779;SDS011;57052;55.602;38.096;2023-02-03T08:42:06;36.60;;;12.88;;
69779;SDS011;57052;55.602;38.096;2023-02-03T08:44:32;33.72;;;13.05;;
69779;SDS011;57052;55.602;38.096;2023-02-03T08:46:58;34.65;;;13.48;;
69779;SDS011;57052;55.602;38.096;2023-02-03T08:49:28;31.85;;;13.02;;
69779;SDS011;57052;55.602;38.096;2023-02-03T08:51:55;36.92;;;12.85;;
69779;SDS011;57052;55.602;38.096;2023-02-03T08:54:22;34.33;;;12.07;;
69779;SDS011;57052;55.602;38.096;2023-02-03T08:56:48;32.97;;;11.50;;
69779;SDS011;57052;55.602;38.096;2023-02-03T08:59:14;33.78;;;13.65;;
69779;SDS011;57052;55.602;38.096;2023-02-03T09:01:40;32.97;;;12.95;;
69779;SDS011;57052;55.602;38.096;2023-02-03T09:04:10;35.15;;;12.65;;
69779;SDS011;57052;55.602;38.096;2023-02-03T09:06:36;31.85;;;12.27;;
69779;SDS011;57052;55.602;38.096;2023-02-03T09:09:02;34.05;;;12.75;;
69779;SDS011;57052;55.602;38.096;2023-02-03T09:11:28;31.50;;;11.32;;
69779;SDS011;57052;55.602;38.096;2023-02-03T09:13:54;30.75;;;11.85;;
69779;SDS011;57052;55.602;38.096;2023-02-03T09:16:22;32.55;;;12.05;;
69779;SDS011;57052;55.602;38.096;2023-02-03T09:18:49;32.80;;;11.80;;
69779;SDS011;57052;55.602;38.096;2023-02-03T09:21:15;31.08;;;12.10;;
69779;SDS011;57052;55.602;38.096;2023-02-03T09:23:42;29.42;;;10.90;;
69779;SDS011;57052;55.602;38.096;2023-02-03T09:26:09;31.02;;;12.13;;
69779;SDS011;57052;55.602;38.096;2023-02-03T09:28:36;31.50;;;11.73;;
69779;SDS011;57052;55.602;38.096;2023-02-03T09:31:03;32.72;;;11.30;;
69779;SDS011;57052;55.602;38.096;2023-02-03T09:33:30;28.83;;;10.27;;
69779;SDS011;57052;55.602;38.096;2023-02-03T09:35:56;33.33;;;11.43;;
69779;SDS011;57052;55.602;38.096;2023-02-03T09:38:24;30.77;;;11.30;;
69779;SDS011;57052;55.602;38.096;2023-02-03T09:40:52;29.58;;;10.23;;
69779;SDS011;57052;55.602;38.096;2023-02-03T09:46:06;29.50;;;10.80;;
69779;SDS011;57052;55.602;38.096;2023-02-03T09:48:41;30.10;;;10.57;;
69779;SDS011;57052;55.602;38.096;2023-02-03T09:51:16;28.67;;;10.18;;
69779;SDS011;57052;55.602;38.096;2023-02-03T09:53:50;27.33;;;10.43;;
69779;SDS011;57052;55.602;38.096;2023-02-03T09:56:26;22.35;;;8.88;;
69779;SDS011;57052;55.602;38.096;2023-02-03T09:58:55;25.90;;;9.88;;
69779;SDS011;57052;55.602;38.096;2023-02-03T10:01:22;32.88;;;11.52;;
69779;SDS011;57052;55.602;38.096;2023-02-03T10:04:01;21.50;;;8.82;;
69779;SDS011;57052;55.602;38.096;2023-02-03T10:06:37;21.67;;;8.02;;
69779;SDS011;57052;55.602;38.096;2023-02-03T10:17:31;27.75;;;10.32;;
69779;SDS011;57052;55.602;38.096;2023-02-03T10:20:12;22.63;;;9.18;;
69779;SDS011;57052;55.602;38.096;2023-02-03T10:22:47;27.17;;;10.13;;
69779;SDS011;57052;55.602;38.096;2023-02-03T10:28:12;24.20;;;8.82;;
69779;SDS011;57052;55.602;38.096;2023-02-03T10:30:43;22.65;;;8.50;;
69779;SDS011;57052;55.602;38.096;2023-02-03T10:33:14;22.85;;;8.85;;
69779;SDS011;57052;55.602;38.096;2023-02-03T10:35:52;22.85;;;9.10;;
69779;SDS011;57052;55.602;38.096;2023-02-03T10:40:53;21.70;;;9.15;;
69779;SDS011;57052;55.602;38.096;2023-02-03T10:43:18;25.00;;;8.10;;
69779;SDS011;57052;55.602;38.096;2023-02-03T10:46:03;22.67;;;9.20;;
69779;SDS011;57052;55.602;38.096;2023-02-03T10:48:28;21.50;;;8.27;;
69779;SDS011;57052;55.602;38.096;2023-02-03T10:50:54;23.23;;;7.70;;
69779;SDS011;57052;55.602;38.096;2023-02-03T10:53:22;23.30;;;8.68;;
69779;SDS011;57052;55.602;38.096;2023-02-03T10:55:51;22.25;;;9.02;;
69779;SDS011;57052;55.602;38.096;2023-02-03T10:58:27;26.40;;;8.35;;
69779;SDS011;57052;55.602;38.096;2023-02-03T11:00:56;21.48;;;8.35;;
69779;SDS011;57052;55.602;38.096;2023-02-03T11:03:29;20.58;;;8.35;;
69779;SDS011;57052;55.602;38.096;2023-02-03T11:06:14;21.77;;;8.95;;
69779;SDS011;57052;55.602;38.096;2023-02-03T11:08:43;22.58;;;9.00;;
69779;SDS011;57052;55.602;38.096;2023-02-03T11:11:14;21.40;;;8.35;;
69779;SDS011;57052;55.602;38.096;2023-02-03T11:13:40;23.30;;;8.90;;
69779;SDS011;57052;55.602;38.096;2023-02-03T11:16:13;20.05;;;8.27;;
69779;SDS011;57052;55.602;38.096;2023-02-03T11:18:43;19.80;;;8.20;;
69779;SDS011;57052;55.602;38.096;2023-02-03T11:21:12;22.55;;;8.50;;
69779;SDS011;57052;55.602;38.096;2023-02-03T11:23:45;20.48;;;7.82;;
69779;SDS011;57052;55.602;38.096;2023-02-03T11:26:31;22.27;;;8.77;;
69779;SDS011;57052;55.602;38.096;2023-02-03T11:29:01;24.00;;;8.43;;
69779;SDS011;57052;55.602;38.096;2023-02-03T11:31:35;21.25;;;7.95;;
69779;SDS011;57052;55.602;38.096;2023-02-03T11:34:05;18.63;;;7.38;;
69779;SDS011;57052;55.602;38.096;2023-02-03T11:36:40;24.73;;;8.80;;
69779;SDS011;57052;55.602;38.096;2023-02-03T11:41:45;17.73;;;7.85;;
69779;SDS011;57052;55.602;38.096;2023-02-03T11:44:16;21.25;;;7.82;;
69779;SDS011;57052;55.602;38.096;2023-02-03T11:46:51;20.30;;;8.35;;
69779;SDS011;57052;55.602;38.096;2023-02-03T11:52:05;17.05;;;7.70;;
69779;SDS011;57052;55.602;38.096;2023-02-03T11:55:03;18.60;;;8.07;;
69779;SDS011;57052;55.602;38.096;2023-02-03T12:03:17;18.73;;;7.80;;
69779;SDS011;57052;55.602;38.096;2023-02-03T12:09:07;17.52;;;7.43;;
69779;SDS011;57052;55.602;38.096;2023-02-03T12:14:48;17.55;;;7.43;;
69779;SDS011;57052;55.602;38.096;2023-02-03T12:23:00;19.40;;;7.45;;
69779;SDS011;57052;55.602;38.096;2023-02-03T12:25:55;20.60;;;8.00;;
69779;SDS011;57052;55.602;38.096;2023-02-03T12:31:17;22.40;;;7.20;;
69779;SDS011;57052;55.602;38.096;2023-02-03T12:33:53;18.98;;;8.18;;
69779;SDS011;57052;55.602;38.096;2023-02-03T12:36:29;20.15;;;8.07;;
69779;SDS011;57052;55.602;38.096;2023-02-03T12:39:02;20.52;;;7.88;;
69779;SDS011;57052;55.602;38.096;2023-02-03T12:41:41;19.05;;;7.75;;
69779;SDS011;57052;55.602;38.096;2023-02-03T12:44:17;18.85;;;7.65;;
69779;SDS011;57052;55.602;38.096;2023-02-03T12:47:11;19.83;;;7.70;;
69779;SDS011;57052;55.602;38.096;2023-02-03T12:49:47;18.98;;;7.90;;
69779;SDS011;57052;55.602;38.096;2023-02-03T12:54:51;19.80;;;7.88;;
69779;SDS011;57052;55.602;38.096;2023-02-03T13:02:42;18.23;;;7.43;;
69779;SDS011;57052;55.602;38.096;2023-02-03T13:05:23;20.00;;;8.23;;
69779;SDS011;57052;55.602;38.096;2023-02-03T13:07:58;22.85;;;8.93;;
69779;SDS011;57052;55.602;38.096;2023-02-03T13:10:33;20.73;;;8.52;;
69779;SDS011;57052;55.602;38.096;2023-02-03T13:13:08;22.60;;;8.82;;
69779;SDS011;57052;55.602;38.096;2023-02-03T13:15:39;22.38;;;9.00;;
69779;SDS011;57052;55.602;38.096;2023-02-03T13:20:53;21.70;;;9.25;;
69779;SDS011;57052;55.602;38.096;2023-02-03T13:23:19;22.13;;;8.50;;
69779;SDS011;57052;55.602;38.096;2023-02-03T13:34:37;21.52;;;8.65;;
69779;SDS011;57052;55.602;38.096;2023-02-03T13:42:32;22.77;;;9.13;;
69779;SDS011;57052;55.602;38.096;2023-02-03T13:48:08;21.30;;;8.15;;
69779;SDS011;57052;55.602;38.096;2023-02-03T13:50:40;18.98;;;8.27;;
69779;SDS011;57052;55.602;38.096;2023-02-03T13:53:14;20.15;;;8.32;;
69779;SDS011;57052;55.602;38.096;2023-02-03T13:55:52;20.58;;;8.60;;
69779;SDS011;57052;55.602;38.096;2023-02-03T13:58:19;19.35;;;7.20;;
69779;SDS011;57052;55.602;38.096;2023-02-03T14:03:18;20.95;;;8.48;;
69779;SDS011;57052;55.602;38.096;2023-02-03T14:05:59;23.98;;;8.48;;
69779;SDS011;57052;55.602;38.096;2023-02-03T14:21:58;23.23;;;8.68;;
69779;SDS011;57052;55.602;38.096;2023-02-03T14:24:35;21.17;;;8.48;;
69779;SDS011;57052;55.602;38.096;2023-02-03T14:27:05;20.65;;;8.48;;
69779;SDS011;57052;55.602;38.096;2023-02-03T14:29:45;22.80;;;8.85;;
69779;SDS011;57052;55.602;38.096;2023-02-03T14:32:54;22.08;;;8.40;;
69779;SDS011;57052;55.602;38.096;2023-02-03T14:35:35;20.85;;;8.27;;
69779;SDS011;57052;55.602;38.096;2023-02-03T14:38:10;20.70;;;8.82;;
69779;SDS011;57052;55.602;38.096;2023-02-03T14:40:55;25.00;;;8.60;;
69779;SDS011;57052;55.602;38.096;2023-02-03T15:05:43;24.08;;;8.82;;
69779;SDS011;57052;55.602;38.096;2023-02-03T15:10:54;24.85;;;9.75;;
69779;SDS011;57052;55.602;38.096;2023-02-03T15:13:27;22.88;;;8.20;;
69779;SDS011;57052;55.602;38.096;2023-02-03T15:15:55;19.90;;;8.90;;
69779;SDS011;57052;55.602;38.096;2023-02-03T15:18:28;22.10;;;8.90;;
69779;SDS011;57052;55.602;38.096;2023-02-03T15:20:56;22.70;;;8.25;;
69779;SDS011;57052;55.602;38.096;2023-02-03T15:23:22;25.02;;;8.98;;
69779;SDS011;57052;55.602;38.096;2023-02-03T15:25:53;20.10;;;8.13;;
69779;SDS011;57052;55.602;38.096;2023-02-03T15:28:52;22.73;;;8.55;;
69779;SDS011;57052;55.602;38.096;2023-02-03T15:31:41;20.70;;;7.88;;
69779;SDS011;57052;55.602;38.096;2023-02-03T15:37:21;23.52;;;8.65;;
69779;SDS011;57052;55.602;38.096;2023-02-03T15:42:29;22.92;;;8.02;;
69779;SDS011;57052;55.602;38.096;2023-02-03T15:45:12;22.02;;;8.70;;
69779;SDS011;57052;55.602;38.096;2023-02-03T15:47:52;21.40;;;7.45;;
69779;SDS011;57052;55.602;38.096;2023-02-03T15:50:28;19.75;;;7.90;;
69779;SDS011;57052;55.602;38.096;2023-02-03T15:53:05;20.40;;;7.53;;
69779;SDS011;57052;55.602;38.096;2023-02-03T15:55:35;18.92;;;7.78;;
69779;SDS011;57052;55.602;38.096;2023-02-03T15:58:26;19.98;;;8.43;;
69779;SDS011;57052;55.602;38.096;2023-02-03T16:00:55;20.33;;;8.52;;
69779;SDS011;57052;55.602;38.096;2023-02-03T16:03:32;21.63;;;7.88;;
69779;SDS011;57052;55.602;38.096;2023-02-03T16:11:19;21.92;;;8.07;;
69779;SDS011;57052;55.602;38.096;2023-02-03T16:14:03;19.48;;;8.07;;
69779;SDS011;57052;55.602;38.096;2023-02-03T16:19:05;21.83;;;8.18;;
69779;SDS011;57052;55.602;38.096;2023-02-03T16:29:49;20.95;;;9.20;;
69779;SDS011;57052;55.602;38.096;2023-02-03T16:32:33;21.98;;;8.48;;
69779;SDS011;57052;55.602;38.096;2023-02-03T16:35:17;25.95;;;9.82;;
69779;SDS011;57052;55.602;38.096;2023-02-03T16:38:05;24.00;;;10.45;;
69779;SDS011;57052;55.602;38.096;2023-02-03T16:40:50;26.88;;;10.48;;
69779;SDS011;57052;55.602;38.096;2023-02-03T16:43:35;27.92;;;10.65;;
69779;SDS011;57052;55.602;38.096;2023-02-03T16:46:19;26.40;;;10.68;;
69779;SDS011;57052;55.602;38.096;2023-02-03T16:49:03;26.02;;;9.60;;
69779;SDS011;57052;55.602;38.096;2023-02-03T16:51:47;25.50;;;10.05;;
69779;SDS011;57052;55.602;38.096;2023-02-03T16:54:13;26.25;;;9.95;;
69779;SDS011;57052;55.602;38.096;2023-02-03T16:56:39;25.02;;;9.63;;
69779;SDS011;57052;55.602;38.096;2023-02-03T16:59:05;25.90;;;9.80;;
69779;SDS011;57052;55.602;38.096;2023-02-03T17:01:31;26.15;;;10.10;;
69779;SDS011;57052;55.602;38.096;2023-02-03T17:03:57;24.55;;;10.38;;
69779;SDS011;57052;55.602;38.096;2023-02-03T17:06:22;22.02;;;9.23;;
69779;SDS011;57052;55.602;38.096;2023-02-03T17:08:48;24.92;;;9.48;;
69779;SDS011;57052;55.602;38.096;2023-02-03T17:11:15;22.75;;;8.45;;
69779;SDS011;57052;55.602;38.096;2023-02-03T17:13:43;25.88;;;10.02;;
69779;SDS011;57052;55.602;38.096;2023-02-03T17:16:11;18.75;;;8.98;;